createdAt,value
2017-12-08T00:00:58.706Z,42.6
2017-12-08T00:02:00.310Z,42.1
2017-12-08T00:03:02.209Z,42.4
2017-12-08T00:04:04.103Z,42.4
2017-12-08T00:05:05.700Z,42.5
2017-12-08T00:06:06.767Z,42.2
2017-12-08T00:07:08.386Z,42.5
2017-12-08T00:08:09.985Z,42.5
2017-12-08T00:09:11.883Z,42.4
2017-12-08T00:10:13.504Z,42.2
2017-12-08T00:11:15.105Z,42.1
2017-12-08T00:12:16.705Z,42.5
2017-12-08T00:13:17.765Z,42.3
2017-12-08T00:14:19.663Z,42.1
2017-12-08T00:15:21.561Z,42.2
2017-12-08T00:16:22.606Z,42.1
2017-12-08T00:17:24.225Z,42.3
2017-12-08T00:18:26.124Z,42.1
2017-12-08T00:19:27.744Z,42.1
2017-12-08T00:20:29.362Z,42.2
2017-12-08T00:21:31.258Z,42.3
2017-12-08T00:22:32.877Z,42.2
2017-12-08T00:23:34.500Z,42.1
2017-12-08T00:24:35.821Z,42.2
2017-12-08T00:25:37.717Z,42.3
2017-12-08T00:26:39.339Z,42.2
2017-12-08T00:27:41.237Z,42.3
2017-12-08T00:28:42.580Z,42.5
2017-12-08T00:29:43.922Z,42.3
2017-12-08T00:30:45.267Z,42.3
2017-12-08T00:31:46.612Z,42.2
2017-12-08T00:32:48.507Z,42.2
2017-12-08T00:33:50.401Z,42.3
2017-12-08T00:34:52.299Z,42.6
2017-12-08T00:35:53.623Z,42.1
2017-12-08T00:36:54.945Z,42.3
2017-12-08T00:37:56.284Z,42.4
2017-12-08T00:38:57.906Z,42.1
2017-12-08T00:39:59.802Z,42.2
2017-12-08T00:41:01.406Z,42.1
2017-12-08T00:42:02.722Z,42.3
2017-12-08T00:43:04.647Z,42.4
2017-12-08T00:44:06.274Z,42.4
2017-12-08T00:45:07.600Z,42.5
2017-12-08T00:46:09.495Z,42.3
2017-12-08T00:47:10.819Z,42.4
2017-12-08T00:48:12.165Z,42.3
2017-12-08T00:49:13.802Z,42.1
2017-12-08T00:50:15.425Z,42.4
2017-12-08T00:51:17.322Z,42.4
2017-12-08T00:52:19.215Z,42.1
2017-12-08T00:53:20.826Z,42.4
2017-12-08T00:54:22.139Z,42.6
2017-12-08T00:55:24.036Z,42.4
2017-12-08T00:56:25.358Z,42.3
2017-12-08T00:57:26.981Z,42.3
2017-12-08T00:58:28.582Z,42.4
2017-12-08T00:59:30.480Z,42.3
2017-12-08T01:02:32.860Z,42.4
2017-12-08T01:03:34.757Z,42.4
2017-12-08T01:04:36.655Z,42.3
2017-12-08T01:05:38.270Z,42.4
2017-12-08T01:06:39.887Z,42.2
2017-12-08T01:07:41.506Z,42.3
2017-12-08T01:08:42.587Z,42.3
2017-12-08T01:09:44.482Z,42.3
2017-12-08T01:10:46.080Z,42.3
2017-12-08T01:11:47.699Z,42.3
2017-12-08T01:12:49.018Z,42.3
2017-12-08T01:13:50.337Z,42.3
2017-12-08T01:14:51.659Z,42.4
2017-12-08T01:15:53.257Z,42.3
2017-12-08T01:16:54.599Z,42.5
2017-12-08T01:17:55.921Z,42.3
2017-12-08T01:18:57.265Z,42.3
2017-12-08T01:19:59.161Z,42.3
2017-12-08T01:21:00.208Z,42.2
2017-12-08T01:22:01.824Z,42.3
2017-12-08T01:23:03.445Z,42.3
2017-12-08T01:24:05.344Z,42.2
2017-12-08T01:25:06.963Z,42.5
2017-12-08T01:26:08.857Z,42.3
2017-12-08T01:27:10.477Z,42.4
2017-12-08T01:28:12.377Z,42.1
2017-12-08T01:29:13.994Z,42.4
2017-12-08T01:30:15.615Z,42.3
2017-12-08T01:31:16.946Z,42.2
2017-12-08T01:32:18.613Z,42.2
2017-12-08T01:33:20.508Z,42.2
2017-12-08T01:34:22.403Z,42.2
2017-12-08T01:35:24.342Z,42.2
2017-12-08T01:36:25.957Z,42.3
2017-12-08T01:37:27.279Z,42.5
2017-12-08T01:38:28.898Z,42.2
2017-12-08T01:39:30.498Z,42.2
2017-12-08T01:40:32.397Z,42.2
2017-12-08T01:41:34.016Z,42.3
2017-12-08T01:42:35.636Z,42.6
2017-12-08T01:43:36.965Z,42.3
2017-12-08T01:44:39.485Z,42.2
2017-12-08T01:45:41.082Z,42.2
2017-12-08T01:46:42.699Z,42.3
2017-12-08T01:47:44.601Z,42.3
2017-12-08T01:48:46.219Z,42.7
2017-12-08T01:49:48.116Z,42.5
2017-12-08T01:50:49.717Z,42.7
2017-12-08T01:51:51.333Z,42.5
2017-12-08T01:52:53.232Z,42.3
2017-12-08T01:53:55.124Z,42.3
2017-12-08T01:54:57.018Z,42.3
2017-12-08T01:55:58.911Z,42.4
2017-12-08T01:57:00.531Z,42.4
2017-12-08T01:58:02.158Z,42.8
2017-12-08T01:59:03.776Z,42.8
2017-12-08T02:00:05.396Z,42.9
2017-12-08T02:01:07.014Z,42.7
2017-12-08T02:02:08.632Z,42.8
2017-12-08T02:03:10.529Z,42.6
2017-12-08T02:04:12.148Z,42.7
2017-12-08T02:05:14.043Z,42.8
2017-12-08T02:06:15.661Z,42.5
2017-12-08T02:07:17.260Z,42.8
2017-12-08T02:08:18.881Z,42.6
2017-12-08T02:09:20.776Z,42.7
2017-12-08T02:10:22.395Z,42.8
2017-12-08T02:11:23.734Z,42.5
2017-12-08T02:12:25.352Z,42.6
2017-12-08T02:13:26.969Z,42.5
2017-12-08T02:14:28.289Z,42.7
2017-12-08T02:15:30.183Z,42.8
2017-12-08T02:16:31.798Z,42.9
2017-12-08T02:17:33.416Z,43
2017-12-08T02:18:35.313Z,42.8
2017-12-08T02:19:36.930Z,42.8
2017-12-08T02:20:38.250Z,42.7
2017-12-08T02:21:39.590Z,42.8
2017-12-08T02:22:41.487Z,42.7
2017-12-08T02:23:43.382Z,42.7
2017-12-08T02:24:45.276Z,42.6
2017-12-08T02:25:46.896Z,42.8
2017-12-08T02:26:48.512Z,42.6
2017-12-08T02:27:50.162Z,42.8
2017-12-08T02:28:52.048Z,42.6
2017-12-08T02:29:53.663Z,42.7
2017-12-08T02:30:55.262Z,42.7
2017-12-08T02:31:56.580Z,42.9
2017-12-08T02:32:58.177Z,43.1
2017-12-08T02:33:59.797Z,43
2017-12-08T02:35:01.419Z,42.9
2017-12-08T02:36:03.039Z,42.7
2017-12-08T02:37:04.646Z,42.6
2017-12-08T02:38:06.554Z,43
2017-12-08T02:39:08.162Z,42.7
2017-12-08T02:40:09.780Z,42.8
2017-12-08T02:41:11.399Z,42.8
2017-12-08T02:42:13.295Z,42.7
2017-12-08T02:43:14.915Z,42.7
2017-12-08T02:44:16.808Z,42.7
2017-12-08T02:45:18.148Z,42.7
2017-12-08T02:46:19.770Z,42.6
2017-12-08T02:47:21.090Z,42.7
2017-12-08T02:48:22.134Z,42.7
2017-12-08T02:49:23.477Z,42.8
2017-12-08T02:50:25.090Z,42.8
2017-12-08T02:51:26.984Z,42.7
2017-12-08T02:52:28.303Z,42.5
2017-12-08T02:53:30.197Z,42.6
2017-12-08T02:54:32.093Z,42.7
2017-12-08T02:55:33.986Z,42.4
2017-12-08T02:56:35.894Z,42.8
2017-12-08T02:57:37.819Z,43
2017-12-08T02:58:39.718Z,42.9
2017-12-08T02:59:41.033Z,42.9
2017-12-08T03:00:42.359Z,42.7
2017-12-08T03:01:43.978Z,42.8
2017-12-08T03:02:45.321Z,42.7
2017-12-08T03:03:47.270Z,42.8
2017-12-08T03:04:48.593Z,42.8
2017-12-08T03:05:50.485Z,42.6
2017-12-08T03:06:52.383Z,43.1
2017-12-08T03:07:54.000Z,42.7
2017-12-08T03:08:55.897Z,42.7
2017-12-08T03:09:57.215Z,42.8
2017-12-08T03:10:58.556Z,42.6
2017-12-08T03:12:00.179Z,42.9
2017-12-08T03:13:01.501Z,42.7
2017-12-08T03:14:03.396Z,42.9
2017-12-08T03:15:05.016Z,42.7
2017-12-08T03:16:06.909Z,42.7
2017-12-08T03:17:07.953Z,42.7
2017-12-08T03:18:09.274Z,42.8
2017-12-08T03:19:10.625Z,42.7
2017-12-08T03:20:12.520Z,42.8
2017-12-08T03:21:13.858Z,42.7
2017-12-08T03:22:15.477Z,42.9
2017-12-08T03:23:17.095Z,42.8
2017-12-08T03:24:18.714Z,42.9
2017-12-08T03:25:19.756Z,42.6
2017-12-08T03:26:21.076Z,42.6
2017-12-08T03:27:23.013Z,42.3
2017-12-08T03:28:24.610Z,42.9
2017-12-08T03:29:26.227Z,42.6
2017-12-08T03:30:28.122Z,42.7
2017-12-08T03:31:29.724Z,42.7
2017-12-08T03:32:31.045Z,42.8
2017-12-08T03:33:32.664Z,42.6
2017-12-08T03:34:34.004Z,42.7
2017-12-08T03:35:35.901Z,42.7
2017-12-08T03:36:37.523Z,42.7
2017-12-08T03:37:39.140Z,42.7
2017-12-08T03:38:40.763Z,42.7
2017-12-08T03:39:42.377Z,42.7
2017-12-08T03:40:44.272Z,42.7
2017-12-08T03:41:45.592Z,42.4
2017-12-08T03:42:47.189Z,42.7
2017-12-08T03:43:49.089Z,42.8
2017-12-08T03:44:51.016Z,42.7
2017-12-08T03:45:52.913Z,42.7
2017-12-08T03:46:54.255Z,42.7
2017-12-08T03:47:55.872Z,42.7
2017-12-08T03:48:57.469Z,42.7
2017-12-08T03:49:59.088Z,42.7
2017-12-08T03:51:00.436Z,42.7
2017-12-08T03:52:02.333Z,42.7
2017-12-08T03:53:03.698Z,42.8
2017-12-08T03:54:05.327Z,42.5
2017-12-08T03:55:06.949Z,42.7
2017-12-08T03:56:08.845Z,42.7
2017-12-08T03:57:10.182Z,42.4
2017-12-08T03:58:11.799Z,42.8
2017-12-08T03:59:13.150Z,42.8
2017-12-08T04:00:15.045Z,42.7
2017-12-08T04:01:16.664Z,42.8
2017-12-08T04:02:18.284Z,42.8
2017-12-08T04:03:19.924Z,42.8
2017-12-08T04:04:21.541Z,42.7
2017-12-08T04:05:23.139Z,43
2017-12-08T04:06:24.958Z,42.8
2017-12-08T04:07:26.596Z,43
2017-12-08T04:08:28.518Z,42.5
2017-12-08T04:09:30.399Z,42.6
2017-12-08T04:10:32.293Z,42.9
2017-12-08T04:11:34.193Z,42.8
2017-12-08T04:12:35.785Z,42.8
2017-12-08T04:13:37.403Z,42.9
2017-12-08T04:14:39.300Z,42.6
2017-12-08T04:15:40.917Z,42.7
2017-12-08T04:16:42.812Z,42.8
2017-12-08T04:17:44.486Z,43
2017-12-08T04:18:46.104Z,42.7
2017-12-08T04:19:48.000Z,42.6
2017-12-08T04:20:49.342Z,43
2017-12-08T04:21:50.963Z,42.7
2017-12-08T04:22:52.582Z,42.7
2017-12-08T04:23:54.203Z,42.7
2017-12-08T04:24:56.098Z,42.6
2017-12-08T04:25:57.696Z,42.7
2017-12-08T04:26:59.592Z,42.6
2017-12-08T04:28:01.490Z,42.6
2017-12-08T04:29:03.091Z,42.7
2017-12-08T04:30:04.712Z,42.7
2017-12-08T04:31:06.330Z,42.6
2017-12-08T04:32:08.227Z,42.6
2017-12-08T04:33:09.826Z,42.8
2017-12-08T04:34:11.446Z,43
2017-12-08T04:35:13.044Z,42.5
2017-12-08T04:36:14.660Z,42.6
2017-12-08T04:37:16.281Z,42.7
2017-12-08T04:38:17.898Z,42.8
2017-12-08T04:39:19.798Z,42.5
2017-12-08T04:40:21.688Z,42.5
2017-12-08T04:41:23.008Z,42.9
2017-12-08T04:42:24.327Z,42.6
2017-12-08T04:43:25.946Z,42.8
2017-12-08T04:44:27.546Z,42.7
2017-12-08T04:45:29.482Z,42.5
2017-12-08T04:46:31.158Z,42.6
2017-12-08T04:47:33.045Z,42.6
2017-12-08T04:48:34.398Z,42.6
2017-12-08T04:49:36.294Z,42.7
2017-12-08T04:50:37.336Z,42.7
2017-12-08T04:51:39.231Z,42.6
2017-12-08T04:52:40.848Z,42.8
2017-12-08T04:53:42.190Z,42.7
2017-12-08T04:54:44.086Z,42.7
2017-12-08T04:55:45.703Z,42.6
2017-12-08T04:56:47.600Z,42.6
2017-12-08T04:57:48.940Z,42.7
2017-12-08T04:58:50.556Z,42.5
2017-12-08T04:59:51.904Z,42.7
2017-12-08T05:00:53.521Z,42.7
2017-12-08T05:01:54.562Z,42.5
2017-12-08T05:02:56.180Z,42.7
2017-12-08T05:03:57.775Z,42.6
2017-12-08T05:04:59.391Z,42.7
2017-12-08T05:06:01.030Z,42.8
2017-12-08T05:07:02.930Z,42.7
2017-12-08T05:08:04.827Z,42.7
2017-12-08T05:09:05.869Z,42.8
2017-12-08T05:10:06.913Z,42.9
2017-12-08T05:11:08.810Z,42.6
2017-12-08T05:12:10.706Z,42.6
2017-12-08T05:13:12.325Z,43
2017-12-08T05:14:14.269Z,42.7
2017-12-08T05:15:16.229Z,42.8
2017-12-08T05:16:17.536Z,42.7
2017-12-08T05:17:19.159Z,42.7
2017-12-08T05:18:20.776Z,42.6
2017-12-08T05:19:22.694Z,42.7
2017-12-08T05:20:24.590Z,42.6
2017-12-08T05:21:26.206Z,42.8
2017-12-08T05:22:27.554Z,43
2017-12-08T05:23:29.221Z,42.6
2017-12-08T05:24:31.117Z,42.6
2017-12-08T05:25:32.450Z,42.7
2017-12-08T05:26:34.346Z,42.8
2017-12-08T05:27:35.962Z,42.5
2017-12-08T05:28:37.577Z,42.7
2017-12-08T05:29:39.183Z,42.8
2017-12-08T05:30:40.802Z,42.3
2017-12-08T05:31:42.419Z,42.2
2017-12-08T05:32:44.037Z,42.2
2017-12-08T05:33:45.631Z,42.2
2017-12-08T05:34:47.297Z,42.3
2017-12-08T05:35:48.916Z,42.4
2017-12-08T05:36:50.236Z,42.4
2017-12-08T05:37:51.856Z,42.2
2017-12-08T05:38:53.750Z,42.2
2017-12-08T05:39:55.647Z,42.4
2017-12-08T05:40:57.263Z,42.3
2017-12-08T05:41:58.880Z,42.3
2017-12-08T05:43:00.506Z,42.5
2017-12-08T05:44:02.096Z,42.3
2017-12-08T05:45:03.991Z,42.5
2017-12-08T05:46:05.312Z,42.3
2017-12-08T05:47:07.206Z,42.3
2017-12-08T05:48:08.824Z,42.1
2017-12-08T05:49:10.720Z,42.1
2017-12-08T05:50:12.336Z,42.4
2017-12-08T05:51:13.960Z,42.2
2017-12-08T05:52:15.628Z,42.2
2017-12-08T05:53:17.235Z,42.2
2017-12-08T05:54:18.580Z,42.3
2017-12-08T05:55:20.208Z,42.1
2017-12-08T05:56:21.819Z,42.4
2017-12-08T05:57:23.437Z,42.2
2017-12-08T05:58:25.042Z,42.5
2017-12-08T05:59:26.939Z,42.4
2017-12-08T06:00:27.977Z,42.5
2017-12-08T06:01:29.578Z,42.4
2017-12-08T06:02:31.531Z,42.2
2017-12-08T06:03:32.929Z,42.3
2017-12-08T06:04:34.824Z,42.2
2017-12-08T06:05:36.143Z,42.3
2017-12-08T06:06:37.763Z,42.1
2017-12-08T06:07:39.360Z,42.3
2017-12-08T06:08:41.258Z,42.3
2017-12-08T06:09:42.876Z,42.1
2017-12-08T06:10:44.583Z,42.3
2017-12-08T06:11:46.186Z,42.1
2017-12-08T06:12:48.127Z,42.3
2017-12-08T06:13:49.724Z,42.4
2017-12-08T06:14:51.383Z,42.1
2017-12-08T06:15:53.357Z,42.1
2017-12-08T06:16:55.092Z,42.2
2017-12-08T06:17:56.988Z,41.9
2017-12-08T06:18:58.608Z,42.2
2017-12-08T06:20:00.226Z,42.1
2017-12-08T06:21:01.893Z,42.2
2017-12-08T06:22:03.790Z,42.2
2017-12-08T06:23:05.463Z,41.9
2017-12-08T06:24:06.518Z,41.9
2017-12-08T06:25:07.824Z,41.5
2017-12-08T06:26:09.141Z,42
2017-12-08T06:27:11.064Z,42.1
2017-12-08T06:28:12.681Z,41.9
2017-12-08T06:29:14.302Z,41.9
2017-12-08T06:30:15.642Z,41.8
2017-12-08T06:31:17.540Z,41.9
2017-12-08T06:32:19.437Z,41.9
2017-12-08T06:33:21.107Z,41.8
2017-12-08T06:34:23.002Z,42.2
2017-12-08T06:35:24.897Z,41.9
2017-12-08T06:36:26.791Z,42.2
2017-12-08T06:37:28.689Z,42.2
2017-12-08T06:38:30.316Z,41.9
2017-12-08T06:39:32.214Z,41.9
2017-12-08T06:40:34.109Z,41.7
2017-12-08T06:41:36.057Z,41.9
2017-12-08T06:42:37.374Z,42.1
2017-12-08T06:43:39.001Z,42.1
2017-12-08T06:44:40.662Z,41.7
2017-12-08T06:45:42.081Z,41.7
2017-12-08T06:46:43.976Z,41.7
2017-12-08T06:47:45.298Z,41.9
2017-12-08T06:48:46.940Z,41.4
2017-12-08T06:49:48.579Z,41.8
2017-12-08T06:50:50.478Z,41.9
2017-12-08T06:51:51.794Z,41.8
2017-12-08T06:52:53.123Z,41.9
2017-12-08T06:53:53.883Z,41.7
2017-12-08T06:54:55.493Z,41.9
2017-12-08T06:55:56.822Z,41.8
2017-12-08T06:56:58.429Z,42
2017-12-08T06:58:00.380Z,41.8
2017-12-08T06:59:02.323Z,41.9
2017-12-08T07:00:03.670Z,41.9
2017-12-08T07:01:05.561Z,41.9
2017-12-08T07:02:07.228Z,42
2017-12-08T07:03:08.291Z,41.9
2017-12-08T07:04:09.916Z,41.9
2017-12-08T07:05:11.540Z,41.8
2017-12-08T07:06:13.136Z,41.8
2017-12-08T07:07:15.044Z,41.8
2017-12-08T07:08:16.669Z,41.9
2017-12-08T07:09:18.291Z,41.7
2017-12-08T07:10:19.618Z,41.8
2017-12-08T07:11:21.243Z,41.8
2017-12-08T07:12:22.583Z,41.9
2017-12-08T07:13:24.203Z,41.7
2017-12-08T07:14:25.883Z,41.7
2017-12-08T07:15:27.479Z,42
2017-12-08T07:16:29.383Z,42
2017-12-08T07:17:31.279Z,42.3
2017-12-08T07:18:33.180Z,42
2017-12-08T07:19:35.080Z,42.1
2017-12-08T07:20:36.400Z,42
2017-12-08T07:21:38.001Z,41.6
2017-12-08T07:22:39.051Z,42.1
2017-12-08T07:23:40.684Z,42
2017-12-08T07:24:42.300Z,42.2
2017-12-08T07:25:44.200Z,41.8
2017-12-08T07:26:45.802Z,42.1
2017-12-08T07:27:47.145Z,42.1
2017-12-08T07:28:48.490Z,41.9
2017-12-08T07:29:50.390Z,42
2017-12-08T07:30:51.438Z,42.2
2017-12-08T07:31:53.337Z,42.1
2017-12-08T07:32:55.234Z,42.1
2017-12-08T07:33:57.142Z,42.2
2017-12-08T07:34:58.846Z,42.2
2017-12-08T07:36:00.436Z,42.1
2017-12-08T07:37:02.334Z,42.1
2017-12-08T07:38:04.229Z,42.2
2017-12-08T07:39:05.276Z,42.1
2017-12-08T07:40:07.176Z,42.1
2017-12-08T07:41:08.546Z,41.9
2017-12-08T07:42:10.159Z,42.2
2017-12-08T07:43:11.803Z,41.9
2017-12-08T07:44:13.701Z,42.2
2017-12-08T07:45:15.305Z,42.2
2017-12-08T07:46:16.648Z,42.3
2017-12-08T07:47:18.550Z,42.2
2017-12-08T07:48:20.412Z,42.3
2017-12-08T07:49:22.095Z,42.5
2017-12-08T07:50:23.772Z,42.2
2017-12-08T07:51:25.675Z,42.2
2017-12-08T07:52:27.315Z,42.1
2017-12-08T07:53:28.635Z,42.2
2017-12-08T07:54:30.274Z,42.3
2017-12-08T07:55:32.198Z,42.2
2017-12-08T07:56:33.540Z,42.6
2017-12-08T07:57:35.439Z,42.2
2017-12-08T07:58:37.341Z,42.2
2017-12-08T07:59:38.688Z,42.3
2017-12-08T08:02:11.300Z,42.1
2017-12-08T08:03:13.070Z,42.3
2017-12-08T08:04:14.790Z,42.3
2017-12-08T08:05:16.702Z,42.3
2017-12-08T08:06:18.307Z,42.4
2017-12-08T08:07:19.932Z,42.3
2017-12-08T08:08:21.268Z,42.3
2017-12-08T08:09:22.894Z,42.3
2017-12-08T08:10:24.837Z,42.3
2017-12-08T08:11:26.462Z,42.3
2017-12-08T08:12:28.091Z,42.2
2017-12-08T08:13:29.731Z,42.4
2017-12-08T08:14:31.353Z,42.2
2017-12-08T08:15:32.680Z,42.3
2017-12-08T08:16:34.303Z,42.4
2017-12-08T08:17:35.942Z,42.3
2017-12-08T08:18:37.566Z,42.3
2017-12-08T08:19:39.503Z,42.4
2017-12-08T08:20:41.403Z,42.3
2017-12-08T08:21:43.300Z,42.3
2017-12-08T08:22:44.923Z,42.3
2017-12-08T08:23:46.270Z,42.3
2017-12-08T08:24:47.890Z,42.3
2017-12-08T08:25:49.514Z,42.4
2017-12-08T08:26:51.408Z,42.4
2017-12-08T08:27:53.306Z,42.4
2017-12-08T08:28:55.206Z,42.4
2017-12-08T08:29:57.109Z,42.3
2017-12-08T08:30:59.005Z,42.3
2017-12-08T08:32:00.902Z,42.3
2017-12-08T08:33:02.521Z,42.3
2017-12-08T08:34:04.142Z,42.3
2017-12-08T08:35:06.039Z,42.3
2017-12-08T08:36:07.365Z,42.3
2017-12-08T08:37:08.686Z,42.4
2017-12-08T08:38:10.290Z,42.3
2017-12-08T08:39:11.912Z,42.4
2017-12-08T08:40:13.859Z,42.4
2017-12-08T08:41:15.471Z,42.3
2017-12-08T08:42:17.374Z,42.3
2017-12-08T08:43:18.721Z,42.1
2017-12-08T08:44:20.344Z,42.3
2017-12-08T08:45:22.247Z,42.3
2017-12-08T08:46:23.937Z,42.4
2017-12-08T08:47:25.923Z,42.4
2017-12-08T08:48:27.240Z,42.4
2017-12-08T08:49:28.310Z,42.3
2017-12-08T08:50:29.915Z,42.5
2017-12-08T08:51:31.864Z,42.3
2017-12-08T08:52:33.488Z,42.5
2017-12-08T08:53:35.114Z,42.5
2017-12-08T08:54:36.742Z,42.3
2017-12-08T08:55:38.640Z,42.5
2017-12-08T08:56:40.266Z,42.5
2017-12-08T08:57:41.888Z,42.3
2017-12-08T08:58:43.556Z,42.4
2017-12-08T08:59:45.458Z,42.3
2017-12-08T09:00:47.081Z,42.2
2017-12-08T09:01:48.424Z,42.3
2017-12-08T09:02:50.360Z,42.3
2017-12-08T09:03:52.257Z,42.3
2017-12-08T09:04:53.601Z,42.4
2017-12-08T09:05:54.653Z,42.3
2017-12-08T09:06:56.271Z,42.3
2017-12-08T09:07:57.871Z,42.5
2017-12-08T09:08:59.477Z,42.4
2017-12-08T09:10:01.079Z,42.4
2017-12-08T09:11:02.979Z,42.3
2017-12-08T09:12:04.306Z,42.3
2017-12-08T09:13:05.652Z,42.4
2017-12-08T09:14:07.272Z,42.3
2017-12-08T09:15:08.622Z,42.4
2017-12-08T09:16:09.949Z,42.3
2017-12-08T09:17:11.276Z,42.3
2017-12-08T09:18:12.625Z,42.4
2017-12-08T09:19:14.232Z,42.2
2017-12-08T09:20:16.137Z,42.3
2017-12-08T09:21:17.195Z,42.4
2017-12-08T09:22:19.094Z,42.1
2017-12-08T09:23:20.417Z,42.2
2017-12-08T09:24:21.463Z,42.2
2017-12-08T09:25:23.089Z,42.2
2017-12-08T09:26:24.164Z,42.3
2017-12-08T09:27:26.068Z,42.3
2017-12-08T09:28:27.689Z,42.3
2017-12-08T09:29:29.021Z,42.2
2017-12-08T09:30:30.370Z,42.6
2017-12-08T09:31:31.992Z,42.3
2017-12-08T09:32:33.890Z,42.4
2017-12-08T09:33:34.940Z,42.4
2017-12-08T09:34:36.565Z,42.4
2017-12-08T09:35:38.185Z,42.4
2017-12-08T09:36:40.084Z,42.5
2017-12-08T09:37:41.684Z,42.3
2017-12-08T09:38:42.729Z,42.5
2017-12-08T09:39:44.363Z,42.3
2017-12-08T09:40:45.705Z,42.3
2017-12-08T09:41:46.753Z,42.4
2017-12-08T09:42:48.651Z,42.2
2017-12-08T09:43:50.268Z,42.5
2017-12-08T09:44:51.613Z,42.4
2017-12-08T09:45:53.236Z,42.1
2017-12-08T09:46:55.140Z,42.3
2017-12-08T09:47:56.759Z,42.4
2017-12-08T09:48:58.656Z,42.3
2017-12-08T09:49:59.997Z,42.3
2017-12-08T09:51:01.903Z,42.2
2017-12-08T09:52:03.525Z,42.3
2017-12-08T09:53:05.428Z,42.4
2017-12-08T09:54:07.333Z,42.4
2017-12-08T09:55:08.963Z,42.2
2017-12-08T09:56:10.862Z,42.3
2017-12-08T09:57:12.213Z,42.2
2017-12-08T09:58:13.836Z,42.2
2017-12-08T09:59:15.738Z,42.5
2017-12-08T10:00:17.084Z,42.5
2017-12-08T10:01:18.693Z,42.7
2017-12-08T10:02:20.320Z,42.5
2017-12-08T10:03:21.669Z,42.8
2017-12-08T10:04:23.574Z,42.8
2017-12-08T10:05:24.626Z,42.4
2017-12-08T10:06:25.688Z,42.2
2017-12-08T10:07:27.587Z,42.2
2017-12-08T10:08:28.914Z,42.5
2017-12-08T10:09:30.257Z,42.2
2017-12-08T10:10:31.862Z,42.4
2017-12-08T10:11:33.487Z,42.3
2017-12-08T10:12:35.108Z,42.2
2017-12-08T10:13:36.437Z,42.3
2017-12-08T10:14:38.037Z,42.1
2017-12-08T10:15:39.940Z,42.2
2017-12-08T10:16:41.272Z,42.2
2017-12-08T10:17:42.593Z,42.2
2017-12-08T10:18:44.493Z,42.3
2017-12-08T10:19:45.817Z,42.2
2017-12-08T10:20:47.439Z,42.2
2017-12-08T10:21:48.782Z,42.3
2017-12-08T10:22:50.682Z,42.3
2017-12-08T10:23:52.582Z,42.5
2017-12-08T10:24:53.633Z,42.2
2017-12-08T10:25:55.255Z,42.3
2017-12-08T10:26:56.604Z,42.3
2017-12-08T10:27:58.512Z,42.3
2017-12-08T10:29:00.122Z,42.3
2017-12-08T10:30:01.744Z,42.3
2017-12-08T10:31:03.365Z,42.4
2017-12-08T10:32:04.963Z,42.4
2017-12-08T10:33:06.008Z,42.3
2017-12-08T10:34:07.398Z,42.4
2017-12-08T10:35:09.296Z,42.3
2017-12-08T10:36:10.618Z,42.4
2017-12-08T10:37:12.244Z,42.3
2017-12-08T10:38:13.296Z,42.4
2017-12-08T10:39:15.248Z,42.4
2017-12-08T10:40:16.864Z,42.5
2017-12-08T10:41:18.762Z,42.1
2017-12-08T10:42:19.804Z,42.2
2017-12-08T10:43:21.425Z,42.6
2017-12-08T10:44:23.323Z,42.4
2017-12-08T10:45:24.366Z,42.4
2017-12-08T10:46:25.994Z,42.7
2017-12-08T10:47:27.337Z,42.4
2017-12-08T10:48:29.237Z,42.8
2017-12-08T10:49:30.574Z,42.1
2017-12-08T10:50:32.171Z,42.6
2017-12-08T10:51:34.071Z,42.6
2017-12-08T10:52:35.391Z,42.4
2017-12-08T10:53:37.288Z,42.3
2017-12-08T10:54:38.987Z,42.5
2017-12-08T10:55:40.306Z,42.2
2017-12-08T10:56:41.955Z,42.5
2017-12-08T10:57:43.583Z,42.4
2017-12-08T10:58:44.631Z,42.4
2017-12-08T10:59:45.975Z,42.6
2017-12-08T11:00:47.594Z,42.4
2017-12-08T11:01:48.964Z,42.4
2017-12-08T11:02:50.314Z,42.5
2017-12-08T11:03:51.865Z,42.4
2017-12-08T11:04:53.487Z,42.3
2017-12-08T11:05:55.387Z,42.3
2017-12-08T11:06:57.006Z,42.3
2017-12-08T11:07:58.330Z,42.1
2017-12-08T11:08:59.949Z,42.1
2017-12-08T11:10:01.846Z,42.4
2017-12-08T11:11:03.442Z,42.3
2017-12-08T11:12:05.338Z,42.4
2017-12-08T11:13:06.678Z,42.3
2017-12-08T11:14:08.005Z,42.1
2017-12-08T11:15:09.677Z,42.2
2017-12-08T11:16:11.571Z,42.2
2017-12-08T11:17:12.889Z,42.2
2017-12-08T11:18:14.231Z,42.1
2017-12-08T11:19:15.574Z,41.7
2017-12-08T11:20:17.193Z,41.7
2017-12-08T11:21:18.850Z,42
2017-12-08T11:22:20.482Z,41.7
2017-12-08T11:23:21.825Z,41.8
2017-12-08T11:24:23.769Z,41.9
2017-12-08T11:25:25.668Z,41.8
2017-12-08T11:26:27.014Z,41.9
2017-12-08T11:27:28.915Z,42
2017-12-08T11:28:30.539Z,42
2017-12-08T11:29:32.437Z,41.9
2017-12-08T11:30:34.061Z,41.9
2017-12-08T11:31:35.684Z,42
2017-12-08T11:32:37.015Z,41.8
2017-12-08T11:33:38.905Z,41.9
2017-12-08T11:34:40.524Z,41.7
2017-12-08T11:35:42.141Z,41.8
2017-12-08T11:36:43.765Z,41.9
2017-12-08T11:37:45.660Z,42.2
2017-12-08T11:38:47.282Z,42.1
2017-12-08T11:39:48.627Z,42.2
2017-12-08T11:40:50.597Z,41.9
2017-12-08T11:41:52.210Z,41.7
2017-12-08T11:42:53.832Z,41.8
2017-12-08T11:43:55.433Z,41.7
2017-12-08T11:44:56.753Z,41.7
2017-12-08T11:45:58.423Z,41.8
2017-12-08T11:47:00.041Z,41.8
2017-12-08T11:48:01.661Z,41.7
2017-12-08T11:49:02.728Z,41.4
2017-12-08T11:50:04.355Z,41.6
2017-12-08T11:51:05.501Z,41.6
2017-12-08T11:52:07.126Z,41.5
2017-12-08T11:53:08.463Z,41.6
2017-12-08T11:54:10.364Z,41.6
2017-12-08T11:55:11.958Z,41.5
2017-12-08T11:56:13.560Z,41.5
2017-12-08T11:57:15.184Z,41.4
2017-12-08T11:58:17.081Z,41.5
2017-12-08T11:59:18.703Z,41.6
2017-12-08T12:00:20.321Z,41.3
2017-12-08T12:01:21.642Z,41.7
2017-12-08T12:02:23.264Z,41.6
2017-12-08T12:03:24.582Z,41.2
2017-12-08T12:04:26.478Z,41.4
2017-12-08T12:05:27.823Z,41.1
2017-12-08T12:06:29.446Z,41.1
2017-12-08T12:07:31.062Z,41.5
2017-12-08T12:08:32.956Z,41.6
2017-12-08T12:09:34.295Z,41.2
2017-12-08T12:10:35.905Z,41.3
2017-12-08T12:11:37.528Z,41.4
2017-12-08T12:12:39.145Z,41.5
2017-12-08T12:13:40.742Z,41.1
2017-12-08T12:14:42.364Z,41.2
2017-12-08T12:15:44.263Z,41.1
2017-12-08T12:16:45.887Z,41.3
2017-12-08T12:17:47.230Z,41.2
2017-12-08T12:18:48.830Z,41.3
2017-12-08T12:19:50.453Z,41.2
2017-12-08T12:20:51.799Z,41.2
2017-12-08T12:21:53.404Z,41.5
2017-12-08T12:22:54.720Z,41.2
2017-12-08T12:23:56.626Z,41.4
2017-12-08T12:24:58.247Z,41.1
2017-12-08T12:25:59.868Z,41.5
2017-12-08T12:27:01.467Z,41.3
2017-12-08T12:28:03.096Z,41.3
2017-12-08T12:29:04.990Z,41.3
2017-12-08T12:30:06.883Z,41.5
2017-12-08T12:31:08.505Z,41.5
2017-12-08T12:32:10.405Z,41.3
2017-12-08T12:33:11.743Z,41.3
2017-12-08T12:34:13.364Z,41.4
2017-12-08T12:35:14.981Z,41.3
2017-12-08T12:36:16.321Z,41.6
2017-12-08T12:37:17.944Z,41.6
2017-12-08T12:38:19.563Z,41.6
2017-12-08T12:39:20.907Z,41.3
2017-12-08T12:40:22.526Z,41.2
2017-12-08T12:41:24.426Z,41.5
2017-12-08T12:42:26.026Z,41.2
2017-12-08T12:43:27.923Z,41.2
2017-12-08T12:44:29.818Z,41.1
2017-12-08T12:45:31.417Z,41.1
2017-12-08T12:46:33.317Z,41.1
2017-12-08T12:47:34.932Z,41.2
2017-12-08T12:48:36.554Z,41.1
2017-12-08T12:49:37.883Z,41.1
2017-12-08T12:50:38.944Z,40.9
2017-12-08T12:51:40.284Z,41.1
2017-12-08T12:52:41.931Z,41
2017-12-08T12:53:43.529Z,41.1
2017-12-08T12:54:45.424Z,41.1
2017-12-08T12:55:47.043Z,41.1
2017-12-08T12:56:48.642Z,41.1
2017-12-08T12:57:50.540Z,41
2017-12-08T12:58:52.139Z,41
2017-12-08T12:59:53.482Z,41
2017-12-08T13:00:55.377Z,40.9
2017-12-08T13:01:56.998Z,40.9
2017-12-08T13:02:58.899Z,40.9
2017-12-08T13:04:00.499Z,40.8
2017-12-08T13:05:02.123Z,41.1
2017-12-08T13:06:03.789Z,41
2017-12-08T13:07:05.692Z,41.1
2017-12-08T13:08:07.583Z,41.1
2017-12-08T13:09:09.182Z,40.6
2017-12-08T13:10:10.785Z,41
2017-12-08T13:11:12.738Z,41.1
2017-12-08T13:12:14.635Z,40.5
2017-12-08T13:13:16.532Z,40.9
2017-12-08T13:14:17.880Z,41.1
2017-12-08T13:15:19.208Z,40.6
2017-12-08T13:16:20.824Z,40.7
2017-12-08T13:17:22.730Z,41
2017-12-08T13:18:24.340Z,41.1
2017-12-08T13:19:25.961Z,40.9
2017-12-08T13:20:27.857Z,41.1
2017-12-08T13:21:29.459Z,40.7
2017-12-08T13:22:31.356Z,41.1
2017-12-08T13:23:33.274Z,40.7
2017-12-08T13:24:35.180Z,41.1
2017-12-08T13:25:37.076Z,40.7
2017-12-08T13:26:38.697Z,41
2017-12-08T13:27:40.593Z,40.7
2017-12-08T13:28:42.212Z,41.1
2017-12-08T13:29:44.109Z,41
2017-12-08T13:30:45.729Z,40.7
2017-12-08T13:31:47.052Z,40.7
2017-12-08T13:32:48.376Z,40.4
2017-12-08T13:33:49.751Z,41
2017-12-08T13:34:51.100Z,40.9
2017-12-08T13:35:52.718Z,40.8
2017-12-08T13:36:54.320Z,41.1
2017-12-08T13:37:56.220Z,40.5
2017-12-08T13:38:57.545Z,40.4
2017-12-08T13:39:58.889Z,40.7
2017-12-08T13:41:00.207Z,40.6
2017-12-08T13:42:01.826Z,40.1
2017-12-08T13:43:03.147Z,40.2
2017-12-08T13:44:05.043Z,40.2
2017-12-08T13:45:06.938Z,40.1
2017-12-08T13:46:08.563Z,40.2